Time;durP1;ratioP1;P1;durP2;ratioP2;P2;SDS_P1;SDS_P2;PMS_P1;PMS_P2;Temp;Humidity;BMP_temperature;BMP_pressure;BME280_temperature;BME280_humidity;BME280_pressure;Samples;Min_cycle;Max_cycle;Signal;HPM_P1;HPM_P2
2021/10/19 00:00:59;;;;;;;19.33;8.93;;;;;;;11.40;46.94;101800.47;5016308;28;20039;-64
2021/10/19 00:03:25;;;;;;;15.25;8.68;;;;;;;11.37;47.11;101801.41;4998085;28;20050;-66
2021/10/19 00:05:50;;;;;;;16.48;9.35;;;;;;;10.95;48.59;101814.78;5000608;28;20041;-64
2021/10/19 00:08:16;;;;;;;19.13;9.13;;;;;;;11.28;47.77;101812.13;5009725;28;20046;-66
2021/10/19 00:10:42;;;;;;;18.50;9.65;;;;;;;11.27;47.56;101810.44;4998391;28;20045;-65
2021/10/19 00:13:07;;;;;;;16.35;8.80;;;;;;;11.41;47.32;101805.66;4996083;28;20041;-64
2021/10/19 00:15:33;;;;;;;13.10;9.20;;;;;;;11.31;47.64;101805.94;4995794;28;20289;-64
2021/10/19 00:17:58;;;;;;;17.33;8.80;;;;;;;11.44;47.29;101804.69;5001274;28;20073;-63
2021/10/19 00:20:24;;;;;;;16.88;8.25;;;;;;;11.23;48.08;101799.19;5002468;28;20134;-65
2021/10/19 00:22:49;;;;;;;18.25;9.70;;;;;;;11.35;48.12;101799.72;5012789;28;20058;-63
2021/10/19 00:25:16;;;;;;;18.27;10.70;;;;;;;11.24;48.40;101797.41;5002096;28;20026;-64
2021/10/19 00:27:43;;;;;;;18.05;9.27;;;;;;;11.15;48.62;101797.66;5011022;28;20033;-65
2021/10/19 00:30:10;;;;;;;15.00;8.98;;;;;;;11.33;48.17;101789.31;5007221;28;20029;-64
2021/10/19 00:32:37;;;;;;;15.98;9.13;;;;;;;11.34;48.06;101788.41;4999705;28;20092;-64
2021/10/19 00:35:04;;;;;;;15.07;9.43;;;;;;;11.35;48.26;101784.03;5006090;28;20046;-64
2021/10/19 00:37:29;;;;;;;15.60;9.48;;;;;;;10.97;49.10;101794.69;4999699;28;20092;-65
2021/10/19 00:39:55;;;;;;;12.73;8.52;;;;;;;11.23;48.46;101796.56;5000891;28;20754;-65
2021/10/19 00:42:20;;;;;;;14.20;9.10;;;;;;;11.03;48.80;101798.88;4997933;28;20105;-65
2021/10/19 00:44:46;;;;;;;14.50;8.98;;;;;;;11.00;49.31;101785.88;5000976;28;20494;-65
2021/10/19 00:47:19;;;;;;;16.10;9.00;;;;;;;11.22;48.90;101794.00;5008692;28;20073;-64
2021/10/19 00:49:45;;;;;;;15.52;9.82;;;;;;;11.28;48.54;101796.44;5003819;28;20426;-69
2021/10/19 00:52:11;;;;;;;17.52;9.20;;;;;;;11.10;49.13;101794.34;4994207;28;20094;-65
2021/10/19 00:54:36;;;;;;;17.08;8.93;;;;;;;11.17;48.86;101780.16;5002233;28;20564;-65
2021/10/19 00:57:02;;;;;;;15.95;9.88;;;;;;;11.18;48.72;101780.13;5004721;28;20092;-65
2021/10/19 00:59:28;;;;;;;17.35;8.57;;;;;;;11.27;48.60;101792.09;5019780;28;20391;-63
2021/10/19 01:01:53;;;;;;;18.73;9.32;;;;;;;11.17;48.73;101778.44;5007131;28;20647;-65
2021/10/19 01:04:19;;;;;;;15.68;9.80;;;;;;;11.23;48.79;101769.53;4998274;28;20148;-65
2021/10/19 01:06:45;;;;;;;17.10;9.43;;;;;;;11.17;48.82;101757.50;4998072;28;20026;-63
2021/10/19 01:09:10;;;;;;;17.95;9.50;;;;;;;11.26;48.70;101745.88;5013203;28;20033;-64
2021/10/19 01:11:36;;;;;;;14.30;9.98;;;;;;;11.21;48.76;101739.94;4991305;28;20041;-64
2021/10/19 01:14:02;;;;;;;12.90;9.30;;;;;;;11.22;48.88;101745.13;4998135;28;20085;-64
2021/10/19 01:16:27;;;;;;;14.23;9.05;;;;;;;11.20;48.77;101746.94;5011815;28;20095;-65
2021/10/19 01:18:53;;;;;;;16.98;8.10;;;;;;;11.37;48.42;101735.97;4997052;28;20393;-64
2021/10/19 01:21:18;;;;;;;15.20;9.40;;;;;;;11.32;48.72;101730.00;5003316;28;20510;-64
2021/10/19 01:23:45;;;;;;;15.75;10.18;;;;;;;11.24;48.82;101718.91;5000660;28;20045;-64
2021/10/19 01:26:10;;;;;;;15.90;8.48;;;;;;;11.33;48.68;101725.63;5002622;28;20042;-64
2021/10/19 01:28:42;;;;;;;17.73;11.63;;;;;;;11.24;48.75;101716.28;5000713;28;20060;-66
2021/10/19 01:31:09;;;;;;;17.65;10.85;;;;;;;11.21;49.00;101712.00;4996988;28;20038;-66
2021/10/19 01:33:34;;;;;;;17.92;10.38;;;;;;;11.15;49.15;101706.97;4997647;28;20045;-65
2021/10/19 01:36:00;;;;;;;15.95;9.68;;;;;;;11.22;49.14;101707.66;5000829;28;20085;-63
2021/10/19 01:38:28;;;;;;;17.13;10.52;;;;;;;11.28;48.94;101711.84;5000304;28;20046;-64
2021/10/19 01:40:56;;;;;;;19.08;10.10;;;;;;;11.25;48.82;101712.78;5013077;28;20111;-65
2021/10/19 01:43:24;;;;;;;17.65;9.57;;;;;;;11.27;48.86;101716.22;4999757;28;20064;-64
2021/10/19 01:45:51;;;;;;;21.13;11.20;;;;;;;11.18;49.00;101711.25;4999459;28;20041;-65
2021/10/19 01:48:18;;;;;;;19.00;10.30;;;;;;;11.23;49.19;101717.19;4998629;28;20519;-64
2021/10/19 01:50:44;;;;;;;18.85;9.38;;;;;;;11.30;48.81;101704.78;5001449;28;20052;-65
2021/10/19 01:53:10;;;;;;;15.65;9.32;;;;;;;11.35;48.83;101702.88;5002978;28;20046;-65
2021/10/19 01:55:37;;;;;;;17.65;9.23;;;;;;;11.41;48.88;101692.25;5002881;28;20040;-64
2021/10/19 01:58:04;;;;;;;15.05;9.73;;;;;;;11.15;49.34;101691.28;4998319;28;20076;-64
2021/10/19 02:00:30;;;;;;;20.08;10.52;;;;;;;11.35;48.99;101682.84;5000458;28;20467;-64
2021/10/19 02:02:58;;;;;;;18.98;10.40;;;;;;;11.07;49.76;101688.03;4996388;28;20050;-64
2021/10/19 02:05:23;;;;;;;23.38;12.45;;;;;;;10.79;50.59;101677.44;4998179;28;20030;-66
2021/10/19 02:07:49;;;;;;;17.15;9.98;;;;;;;11.04;49.64;101681.13;5004802;28;20069;-66
2021/10/19 02:10:14;;;;;;;17.77;10.13;;;;;;;11.11;49.83;101673.94;5001966;28;20511;-66
2021/10/19 02:12:40;;;;;;;17.98;9.75;;;;;;;11.43;48.97;101665.13;5004186;28;20045;-64
2021/10/19 02:15:08;;;;;;;18.60;11.35;;;;;;;11.54;48.52;101663.94;4992316;28;20064;-64
2021/10/19 02:17:34;;;;;;;20.08;10.52;;;;;;;11.48;48.78;101661.50;4990010;28;20046;-63
2021/10/19 02:20:00;;;;;;;20.67;11.35;;;;;;;11.59;48.64;101659.41;5008741;28;20275;-65
2021/10/19 02:22:28;;;;;;;20.10;11.23;;;;;;;11.66;48.40;101656.56;4990338;28;20046;-66
2021/10/19 02:24:54;;;;;;;19.42;9.60;;;;;;;11.70;48.13;101657.28;5000197;28;20042;-65
2021/10/19 02:27:19;;;;;;;25.05;11.65;;;;;;;11.71;48.14;101664.25;5000577;28;20084;-66
2021/10/19 02:29:45;;;;;;;19.23;10.75;;;;;;;11.62;48.49;101662.78;5002299;28;20511;-65
2021/10/19 02:32:10;;;;;;;23.15;12.68;;;;;;;11.72;48.30;101671.19;5002951;28;20049;-64
2021/10/19 02:34:36;;;;;;;23.63;11.88;;;;;;;11.57;48.75;101669.06;5002125;28;20406;-64
2021/10/19 02:37:02;;;;;;;20.77;9.90;;;;;;;11.50;48.94;101670.16;5006036;28;20124;-65
2021/10/19 02:39:27;;;;;;;19.52;11.32;;;;;;;11.50;48.99;101670.16;4999531;28;20030;-64
2021/10/19 02:41:53;;;;;;;21.00;10.73;;;;;;;11.40;49.19;101670.44;5003354;28;20129;-64
2021/10/19 02:44:18;;;;;;;17.58;10.55;;;;;;;11.55;49.23;101668.25;5005361;28;20021;-64
2021/10/19 02:46:44;;;;;;;18.27;10.13;;;;;;;11.38;49.48;101660.94;4999581;28;20113;-65
2021/10/19 02:49:09;;;;;;;18.80;10.48;;;;;;;10.64;51.37;101673.53;4994348;28;20613;-65
2021/10/19 02:51:35;;;;;;;21.67;11.57;;;;;;;11.24;49.96;101666.56;5001171;28;20056;-64
2021/10/19 02:54:00;;;;;;;17.92;11.48;;;;;;;11.41;49.62;101664.28;4994954;28;20148;-64
2021/10/19 02:56:26;;;;;;;20.65;10.63;;;;;;;11.41;49.46;101651.22;5010816;28;20034;-64
2021/10/19 02:58:51;;;;;;;18.98;11.23;;;;;;;11.23;49.87;101651.78;4990467;28;20045;-65
2021/10/19 03:01:17;;;;;;;19.70;11.45;;;;;;;10.43;52.20;101659.25;5004588;28;20038;-64
2021/10/19 03:03:42;;;;;;;21.85;11.88;;;;;;;11.18;50.50;101653.69;4994115;28;20084;-64
2021/10/19 03:06:08;;;;;;;21.73;10.85;;;;;;;11.54;49.57;101656.94;5000189;28;20094;-64
2021/10/19 03:08:33;;;;;;;17.75;9.60;;;;;;;11.68;49.18;101656.47;5003242;28;20050;-65
2021/10/19 03:10:59;;;;;;;22.15;13.30;;;;;;;11.83;48.47;101665.66;4998179;28;20073;-64
2021/10/19 03:13:25;;;;;;;17.05;10.65;;;;;;;11.83;48.70;101666.50;5004885;28;20046;-64
2021/10/19 03:15:51;;;;;;;20.40;11.20;;;;;;;11.39;49.88;101663.50;4998479;28;20042;-65
2021/10/19 03:18:17;;;;;;;19.90;11.02;;;;;;;11.63;49.46;101672.34;5005812;28;20063;-64
2021/10/19 03:20:42;;;;;;;18.20;10.95;;;;;;;11.65;49.29;101672.31;4994952;28;20531;-66
2021/10/19 03:23:09;;;;;;;19.38;10.52;;;;;;;11.57;49.66;101669.06;4999555;28;20129;-65
2021/10/19 03:25:34;;;;;;;22.55;12.48;;;;;;;11.62;49.52;101669.75;4999731;28;20048;-65
2021/10/19 03:27:59;;;;;;;19.73;10.65;;;;;;;11.64;49.26;101662.72;5002771;28;20507;-64
2021/10/19 03:30:25;;;;;;;22.80;10.95;;;;;;;11.71;49.48;101672.13;5012873;28;20332;-65
2021/10/19 03:32:51;;;;;;;19.55;11.48;;;;;;;11.35;50.41;101667.13;4996011;28;20074;-65
2021/10/19 03:35:16;;;;;;;18.98;11.45;;;;;;;11.71;49.34;101664.25;5001764;28;20037;-64
2021/10/19 03:37:41;;;;;;;22.60;9.73;;;;;;;11.83;49.17;101663.03;5001033;28;20482;-65
2021/10/19 03:40:08;;;;;;;21.50;11.52;;;;;;;11.49;50.12;101658.00;5006096;28;20056;-66
2021/10/19 03:42:34;;;;;;;19.40;11.88;;;;;;;11.36;50.43;101660.13;4999784;28;20046;-64
2021/10/19 03:45:00;;;;;;;26.35;11.68;;;;;;;11.47;50.55;101655.41;5001670;28;20049;-65
2021/10/19 03:47:25;;;;;;;19.38;11.57;;;;;;;11.27;50.74;101652.56;4997032;28;20054;-65
2021/10/19 03:49:51;;;;;;;19.08;10.95;;;;;;;11.66;49.66;101650.44;5001656;28;20037;-64
2021/10/19 03:52:16;;;;;;;21.00;11.73;;;;;;;11.48;50.04;101646.63;5002637;28;20049;-65
2021/10/19 03:54:42;;;;;;;19.67;11.35;;;;;;;11.88;49.17;101643.63;5017341;28;20034;-65
2021/10/19 03:57:07;;;;;;;23.38;12.73;;;;;;;11.49;50.22;101634.44;5002529;28;20046;-66
2021/10/19 03:59:34;;;;;;;20.33;11.63;;;;;;;11.85;49.31;101630.63;5004641;28;20045;-64
2021/10/19 04:02:00;;;;;;;18.48;12.07;;;;;;;11.95;49.13;101635.56;5001123;28;20120;-65
2021/10/19 04:04:26;;;;;;;20.05;12.07;;;;;;;11.98;49.45;101635.47;5002675;28;20046;-65
2021/10/19 04:06:51;;;;;;;19.25;11.60;;;;;;;11.95;49.21;101628.56;5002813;28;20143;-65
2021/10/19 04:09:16;;;;;;;19.67;11.02;;;;;;;11.93;49.50;101626.91;5001549;28;20014;-65
2021/10/19 04:11:42;;;;;;;24.17;12.18;;;;;;;11.98;49.44;101625.00;5011241;28;20038;-65
2021/10/19 04:14:07;;;;;;;19.08;10.85;;;;;;;12.02;49.22;101631.81;4996874;28;20388;-65
2021/10/19 04:16:34;;;;;;;17.67;11.05;;;;;;;11.88;49.51;101630.53;5006894;28;20404;-66
2021/10/19 04:19:03;;;;;;;18.83;10.32;;;;;;;12.00;49.57;101626.66;5005413;28;20050;-65
2021/10/19 04:21:28;;;;;;;22.35;11.43;;;;;;;12.02;49.54;101621.34;4999371;28;20040;-65
2021/10/19 04:23:54;;;;;;;17.20;10.85;;;;;;;11.99;49.59;101613.59;5012493;28;20049;-66
2021/10/19 04:26:19;;;;;;;22.05;11.73;;;;;;;11.92;49.73;101615.56;5002229;28;20072;-64
2021/10/19 04:28:45;;;;;;;21.38;12.05;;;;;;;12.05;49.06;101618.63;5000282;28;20048;-66
2021/10/19 04:31:12;;;;;;;17.10;10.93;;;;;;;12.06;49.27;101617.72;5007064;28;20057;-65
2021/10/19 04:33:38;;;;;;;19.35;10.90;;;;;;;11.99;49.18;101606.59;4993076;28;20045;-64
2021/10/19 04:36:05;;;;;;;19.65;11.93;;;;;;;12.00;49.11;101603.06;4993930;28;20031;-65
2021/10/19 04:38:35;;;;;;;18.42;11.23;;;;;;;11.79;49.89;101594.16;5002403;28;20080;-65
2021/10/19 04:41:01;;;;;;;19.55;12.23;;;;;;;11.71;50.25;101596.16;5001647;28;20046;-65
2021/10/19 04:43:26;;;;;;;25.08;11.63;;;;;;;11.77;50.22;101580.25;4991380;28;20053;-65
2021/10/19 04:45:53;;;;;;;21.35;10.98;;;;;;;11.63;50.61;101575.47;5006605;28;20368;-65
2021/10/19 04:48:20;;;;;;;18.85;11.98;;;;;;;11.87;49.77;101570.34;4992091;28;20139;-64
2021/10/19 04:50:46;;;;;;;19.85;11.20;;;;;;;11.84;49.97;101570.44;4996899;28;20042;-64
2021/10/19 04:53:11;;;;;;;20.83;12.40;;;;;;;11.54;51.16;101557.44;5004389;28;20112;-64
2021/10/19 04:55:38;;;;;;;22.85;12.35;;;;;;;11.62;50.84;101570.25;5003106;28;20446;-66
2021/10/19 04:58:03;;;;;;;21.55;12.40;;;;;;;11.66;51.04;101571.88;5003576;28;20041;-65
2021/10/19 05:00:29;;;;;;;20.55;12.27;;;;;;;11.82;50.51;101569.63;5007561;28;20038;-65
2021/10/19 05:02:55;;;;;;;20.17;11.77;;;;;;;11.58;51.16;101568.69;5016955;28;20491;-66
2021/10/19 05:05:21;;;;;;;25.70;13.13;;;;;;;11.84;50.20;101566.06;4993159;28;20525;-64
2021/10/19 05:07:47;;;;;;;20.58;12.75;;;;;;;11.63;51.09;101569.38;5001768;28;20511;-64
2021/10/19 05:10:14;;;;;;;21.88;11.50;;;;;;;11.83;50.48;101572.19;5000789;28;20064;-64
2021/10/19 05:12:39;;;;;;;22.77;13.02;;;;;;;11.88;50.48;101575.50;5003616;28;20053;-66
2021/10/19 05:15:06;;;;;;;22.42;13.63;;;;;;;11.76;50.70;101573.28;5005336;28;20037;-64
2021/10/19 05:17:31;;;;;;;24.48;11.85;;;;;;;11.07;52.89;101583.38;4999684;28;20042;-65
2021/10/19 05:19:56;;;;;;;21.10;12.50;;;;;;;11.56;51.37;101580.97;5004232;28;20412;-65
2021/10/19 05:22:25;;;;;;;21.70;11.25;;;;;;;11.35;51.84;101583.38;4997652;28;20044;-65
2021/10/19 05:24:51;;;;;;;20.50;13.30;;;;;;;10.63;53.98;101586.38;5010799;28;20030;-65
2021/10/19 05:27:17;;;;;;;21.25;12.02;;;;;;;11.12;52.71;101586.69;5001447;28;20048;-65
2021/10/19 05:29:43;;;;;;;22.73;12.40;;;;;;;11.40;51.74;101585.84;4998858;28;20037;-65
2021/10/19 05:32:08;;;;;;;24.58;12.98;;;;;;;11.36;52.19;101579.00;5000919;28;20513;-65
2021/10/19 05:34:34;;;;;;;22.48;11.95;;;;;;;11.52;51.26;101584.59;4998665;28;20511;-65
2021/10/19 05:37:00;;;;;;;23.60;11.73;;;;;;;11.35;52.01;101580.75;5002899;28;20053;-65
2021/10/19 05:39:25;;;;;;;25.35;12.88;;;;;;;10.87;53.49;101578.75;5000164;28;20025;-63
2021/10/19 05:41:51;;;;;;;22.13;12.15;;;;;;;11.23;52.13;101568.06;5003944;28;20030;-64
2021/10/19 05:44:16;;;;;;;22.70;12.23;;;;;;;11.16;52.38;101577.00;5007595;28;20399;-64
2021/10/19 05:46:41;;;;;;;26.40;13.20;;;;;;;11.33;52.30;101577.34;5001524;28;20076;-67
2021/10/19 05:49:07;;;;;;;25.83;12.68;;;;;;;11.59;51.46;101559.91;5004906;28;20041;-64
2021/10/19 05:51:33;;;;;;;25.23;13.38;;;;;;;11.74;51.15;101569.03;4999720;28;20506;-65
2021/10/19 05:53:59;;;;;;;24.85;12.77;;;;;;;11.81;51.08;101560.91;5014838;28;20256;-64
2021/10/19 05:56:25;;;;;;;19.73;11.27;;;;;;;11.85;51.09;101562.53;5012497;28;20080;-65
2021/10/19 05:58:50;;;;;;;22.85;12.23;;;;;;;11.66;51.67;101564.03;4999576;28;20046;-65
2021/10/19 06:01:16;;;;;;;24.05;13.30;;;;;;;11.87;50.99;101560.72;4998847;28;20037;-65
2021/10/19 06:03:41;;;;;;;24.05;12.57;;;;;;;11.88;51.00;101557.16;4994454;28;20435;-65
2021/10/19 06:06:08;;;;;;;21.02;12.10;;;;;;;11.94;50.88;101550.03;5001438;28;20041;-63
2021/10/19 06:08:34;;;;;;;23.15;13.27;;;;;;;12.03;50.17;101549.72;5000588;28;20042;-64
2021/10/19 06:11:00;;;;;;;21.65;12.32;;;;;;;11.98;50.53;101546.41;5003584;28;20053;-67
2021/10/19 06:13:26;;;;;;;25.30;13.27;;;;;;;11.97;50.54;101549.91;4999074;28;20046;-64
2021/10/19 06:15:52;;;;;;;23.73;12.43;;;;;;;11.87;51.00;101560.72;5001968;28;20119;-66
2021/10/19 06:18:18;;;;;;;20.30;12.52;;;;;;;12.05;50.71;101556.59;5000911;28;20088;-65
2021/10/19 06:20:46;;;;;;;20.85;11.98;;;;;;;11.88;50.92;101551.94;5001460;28;20065;-65
2021/10/19 06:23:12;;;;;;;21.17;11.65;;;;;;;12.12;50.44;101548.53;5000412;28;20510;-66
2021/10/19 06:25:37;;;;;;;23.23;12.93;;;;;;;12.16;50.49;101547.50;4996551;28;20261;-66
2021/10/19 06:28:03;;;;;;;23.90;12.50;;;;;;;12.02;50.58;101554.09;4998588;28;20082;-65
2021/10/19 06:30:29;;;;;;;23.15;13.02;;;;;;;12.00;50.89;101550.69;4993400;28;20379;-66
2021/10/19 06:32:54;;;;;;;21.70;12.32;;;;;;;12.14;50.64;101547.56;4998624;28;20489;-65
2021/10/19 06:35:20;;;;;;;21.67;12.68;;;;;;;12.17;50.56;101542.19;5018027;28;20578;-66
2021/10/19 06:37:45;;;;;;;19.33;11.95;;;;;;;12.16;50.56;101550.13;5008016;28;20050;-66
2021/10/19 06:40:11;;;;;;;21.48;12.55;;;;;;;12.12;50.88;101548.53;5003634;28;20494;-65
2021/10/19 06:42:37;;;;;;;22.42;12.30;;;;;;;12.25;50.75;101552.41;5002625;28;20554;-64
2021/10/19 06:45:04;;;;;;;16.17;11.23;;;;;;;12.29;50.05;101551.41;5000169;28;20052;-64
2021/10/19 06:47:30;;;;;;;22.60;12.32;;;;;;;12.20;50.55;101543.84;5002462;28;20399;-65
2021/10/19 06:49:56;;;;;;;20.67;11.80;;;;;;;12.28;50.52;101550.53;4993630;28;20037;-64
2021/10/19 06:52:22;;;;;;;24.05;12.50;;;;;;;12.39;50.04;101546.66;5001523;28;20110;-65
2021/10/19 06:54:47;;;;;;;25.02;12.45;;;;;;;12.38;50.38;101534.44;4998978;28;20129;-65
2021/10/19 06:57:13;;;;;;;21.23;11.60;;;;;;;12.13;51.10;101537.97;5002273;28;20049;-65
2021/10/19 06:59:38;;;;;;;24.20;10.93;;;;;;;12.38;50.59;101534.44;5001795;28;20491;-66
2021/10/19 07:02:04;;;;;;;18.92;11.25;;;;;;;12.04;51.60;101547.03;4998617;28;20065;-65
2021/10/19 07:04:30;;;;;;;23.27;12.98;;;;;;;12.23;51.41;101547.22;4995459;28;20029;-63
2021/10/19 07:06:56;;;;;;;23.00;12.18;;;;;;;12.28;51.24;101545.28;4997831;28;20026;-66
2021/10/19 07:09:21;;;;;;;24.92;12.68;;;;;;;12.35;51.29;101552.94;5001956;28;20030;-64
2021/10/19 07:11:47;;;;;;;20.08;11.98;;;;;;;12.37;51.58;101553.72;4998585;28;20036;-65
2021/10/19 07:14:12;;;;;;;19.05;11.55;;;;;;;12.36;51.77;101557.28;4999196;28;20037;-63
2021/10/19 07:16:38;;;;;;;17.15;11.07;;;;;;;12.46;51.23;101550.75;4998062;28;20073;-65
2021/10/19 07:19:08;;;;;;;21.25;12.65;;;;;;;12.17;51.92;101550.06;5000284;28;20041;-65
2021/10/19 07:21:34;;;;;;;19.48;10.77;;;;;;;12.34;51.94;101553.84;5000277;28;20441;-65
2021/10/19 07:23:59;;;;;;;20.85;12.65;;;;;;;11.40;54.96;101557.06;4996797;28;20162;-64
2021/10/19 07:26:25;;;;;;;21.42;12.02;;;;;;;11.34;54.98;101552.00;5023309;28;20076;-64
2021/10/19 07:28:50;;;;;;;19.65;12.13;;;;;;;12.21;52.93;101551.66;5003172;28;20037;-64
2021/10/19 07:31:18;;;;;;;21.88;12.38;;;;;;;12.16;52.79;101550.97;5004626;28;20505;-67
2021/10/19 07:33:43;;;;;;;22.02;13.25;;;;;;;11.77;54.05;101548.84;5007989;28;20057;-66
2021/10/19 07:36:11;;;;;;;23.80;13.07;;;;;;;12.03;53.42;101545.31;4996503;28;20419;-64
2021/10/19 07:38:36;;;;;;;21.17;12.90;;;;;;;12.16;52.99;101550.97;5003276;28;20034;-64
2021/10/19 07:41:02;;;;;;;22.92;12.50;;;;;;;11.83;54.33;101542.53;5000566;28;20079;-64
2021/10/19 07:43:28;;;;;;;24.08;11.75;;;;;;;12.18;53.49;101543.91;5002699;28;20061;-66
2021/10/19 07:45:56;;;;;;;22.27;12.55;;;;;;;12.21;53.36;101543.78;4997003;28;20160;-64
2021/10/19 07:48:22;;;;;;;24.20;13.20;;;;;;;12.35;53.36;101535.41;5000760;28;20501;-64
2021/10/19 07:50:47;;;;;;;27.13;13.55;;;;;;;12.39;53.19;101530.94;4996500;28;20140;-64
2021/10/19 07:53:14;;;;;;;22.48;13.38;;;;;;;12.35;53.23;101529.34;4998697;28;20066;-65
2021/10/19 07:55:40;;;;;;;22.20;12.50;;;;;;;12.35;53.68;101524.09;4994880;28;20113;-66
2021/10/19 07:58:06;;;;;;;24.13;12.60;;;;;;;12.38;53.47;101529.22;5002326;28;20087;-65
2021/10/19 08:00:31;;;;;;;20.85;12.35;;;;;;;12.47;53.29;101528.88;5001677;28;20065;-64
2021/10/19 08:02:58;;;;;;;22.33;12.80;;;;;;;12.45;53.70;101538.56;5005004;28;20133;-64
2021/10/19 08:05:24;;;;;;;19.75;11.55;;;;;;;12.56;53.60;101533.78;5010219;28;20626;-64
2021/10/19 08:07:52;;;;;;;23.63;12.63;;;;;;;12.43;53.86;101528.13;5001798;28;20453;-64
2021/10/19 08:10:20;;;;;;;24.50;13.30;;;;;;;12.60;53.24;101530.13;5016786;28;20038;-64
2021/10/19 08:12:46;;;;;;;37.95;13.13;;;;;;;12.74;53.25;101531.41;5009518;28;20129;-64
2021/10/19 08:15:14;;;;;;;24.63;13.75;;;;;;;12.80;53.00;101528.53;5003787;28;20136;-64
2021/10/19 08:17:40;;;;;;;24.30;12.77;;;;;;;12.67;53.58;101523.72;5022592;28;20503;-65
2021/10/19 08:20:08;;;;;;;21.17;13.32;;;;;;;12.69;53.55;101513.19;5003317;28;20558;-64
2021/10/19 08:22:35;;;;;;;23.98;13.75;;;;;;;12.87;53.05;101509.00;5000875;28;20098;-64
2021/10/19 08:25:05;;;;;;;24.80;12.15;;;;;;;12.59;54.12;101506.59;4998605;28;20566;-64
2021/10/19 08:27:31;;;;;;;28.33;13.10;;;;;;;12.80;53.55;101502.28;4992432;28;20053;-65
2021/10/19 08:29:57;;;;;;;23.77;13.38;;;;;;;12.95;53.43;101504.31;4999508;28;20057;-66
2021/10/19 08:32:23;;;;;;;24.83;13.95;;;;;;;12.78;54.13;101501.50;5005121;28;20543;-68
2021/10/19 08:34:48;;;;;;;24.70;13.18;;;;;;;12.59;54.53;101499.56;5003101;28;20033;-65
2021/10/19 08:37:14;;;;;;;21.27;13.57;;;;;;;12.32;55.63;101508.50;5006563;28;20046;-64
2021/10/19 08:39:40;;;;;;;20.05;13.10;;;;;;;12.65;54.37;101501.09;5001749;28;20038;-64
2021/10/19 08:42:06;;;;;;;23.13;13.50;;;;;;;12.72;54.28;101492.13;5008533;28;20133;-64
2021/10/19 08:44:31;;;;;;;20.25;12.93;;;;;;;12.63;54.76;101501.16;5003797;28;20445;-65
2021/10/19 08:46:57;;;;;;;25.80;13.57;;;;;;;12.74;54.42;101492.91;4981628;28;20104;-65
2021/10/19 08:49:23;;;;;;;22.20;12.00;;;;;;;13.20;53.29;101503.31;5005819;28;20040;-65
2021/10/19 08:51:48;;;;;;;23.10;12.90;;;;;;;12.88;53.75;101497.59;5003076;28;20034;-66
2021/10/19 08:54:14;;;;;;;23.20;12.68;;;;;;;12.97;54.18;101496.38;5002916;28;20256;-65
2021/10/19 08:56:40;;;;;;;19.05;12.30;;;;;;;13.18;53.88;101494.66;5004222;28;20080;-65
2021/10/19 08:59:06;;;;;;;18.05;11.63;;;;;;;13.32;53.54;101487.91;5003297;28;20487;-65
2021/10/19 09:01:37;;;;;;;18.35;12.23;;;;;;;12.83;54.54;101494.31;5000128;28;20087;-64
2021/10/19 09:04:07;;;;;;;25.00;13.50;;;;;;;12.61;55.84;101489.88;4992354;28;20037;-65
2021/10/19 09:06:35;;;;;;;24.48;14.20;;;;;;;12.75;55.38;101501.63;4990891;28;20189;-64
2021/10/19 09:09:16;;;;;;;20.13;14.05;;;;;;;13.07;54.10;101493.34;4991269;28;20044;-66
2021/10/19 09:11:45;;;;;;;19.90;12.95;;;;;;;13.09;54.07;101496.75;5005635;28;20053;-66
2021/10/19 09:14:12;;;;;;;17.33;11.80;;;;;;;13.13;54.15;101500.09;5004038;28;20045;-66
2021/10/19 09:17:05;;;;;;;23.33;13.23;;;;;;;13.35;53.52;101500.06;5001787;28;20050;-65
2021/10/19 09:19:34;;;;;;;19.20;12.50;;;;;;;13.44;53.22;101485.69;5005856;28;20062;-65
2021/10/19 09:22:08;;;;;;;23.10;11.80;;;;;;;13.10;54.00;101471.34;5008106;28;20034;-65
2021/10/19 09:24:39;;;;;;;19.98;12.02;;;;;;;12.95;54.63;101478.06;5008221;28;20042;-64
2021/10/19 09:27:11;;;;;;;21.55;12.63;;;;;;;13.18;54.15;101468.41;5020039;28;20049;-64
2021/10/19 09:29:36;;;;;;;;;;;;;;;12.49;56.24;101475.47;5006176;28;20041;-63
2021/10/19 09:32:03;;;;;;;20.10;11.88;;;;;;;12.92;55.63;101465.09;5007323;28;19920;-65
2021/10/19 09:34:32;;;;;;;29.27;13.18;;;;;;;13.32;54.51;101463.44;5007215;28;20063;-64
2021/10/19 09:36:59;;;;;;;19.70;12.38;;;;;;;13.58;53.93;101462.34;5004164;28;20049;-64
2021/10/19 09:39:31;;;;;;;19.40;12.27;;;;;;;13.34;54.17;101451.09;5027121;28;20097;-64
2021/10/19 09:41:57;;;;;;;19.65;11.95;;;;;;;12.86;55.78;101446.97;5012060;28;20057;-68
2021/10/19 09:44:23;;;;;;;24.40;12.32;;;;;;;13.50;54.32;101454.78;5012613;28;20049;-65
2021/10/19 09:46:49;;;;;;;21.85;13.18;;;;;;;13.09;55.13;101449.50;5005125;28;20025;-64
2021/10/19 09:49:14;;;;;;;22.08;12.88;;;;;;;12.87;55.89;101457.41;5005847;28;20065;-64
2021/10/19 09:51:41;;;;;;;17.00;12.35;;;;;;;13.28;54.90;101451.34;4998621;28;20406;-63
2021/10/19 09:54:09;;;;;;;18.45;12.40;;;;;;;12.91;55.96;101445.00;5002228;28;20042;-65
2021/10/19 09:56:39;;;;;;;18.77;12.93;;;;;;;13.24;54.97;101449.78;5000715;28;20045;-65
2021/10/19 09:59:06;;;;;;;16.90;12.10;;;;;;;13.34;54.89;101448.47;5000180;28;20137;-65
2021/10/19 10:01:33;;;;;;;17.35;11.88;;;;;;;13.13;55.47;101450.22;4999431;28;20038;-64
2021/10/19 10:04:00;;;;;;;24.83;14.02;;;;;;;12.83;56.56;101447.09;4993250;28;20072;-64
2021/10/19 10:06:30;;;;;;;21.95;10.93;;;;;;;13.33;55.03;101444.97;5000441;28;20030;-64
2021/10/19 10:08:59;;;;;;;20.80;13.00;;;;;;;13.41;54.95;101438.56;4989104;28;20419;-65
2021/10/19 10:11:25;;;;;;;20.75;12.27;;;;;;;13.50;54.56;101436.38;5003212;28;20045;-66
2021/10/19 10:13:58;;;;;;;18.05;12.10;;;;;;;12.99;56.12;101437.69;5005130;28;20076;-65
2021/10/19 10:16:25;;;;;;;18.13;11.95;;;;;;;13.35;55.21;101433.56;5010631;28;20058;-65
2021/10/19 10:18:50;;;;;;;20.08;12.93;;;;;;;13.44;54.82;101430.56;4997741;28;20049;-63
2021/10/19 10:21:18;;;;;;;18.92;12.18;;;;;;;13.53;54.52;101425.75;4997554;28;20030;-65
2021/10/19 10:23:44;;;;;;;23.00;12.52;;;;;;;13.59;54.75;101426.44;5001201;28;20105;-66
2021/10/19 10:26:27;;;;;;;23.08;13.35;;;;;;;13.83;54.11;101420.09;5009512;28;20111;-63
2021/10/19 10:28:52;;;;;;;23.30;12.10;;;;;;;13.80;54.32;101430.72;4998907;28;20080;-65
2021/10/19 10:31:23;;;;;;;18.90;11.63;;;;;;;13.83;54.11;101417.47;5013488;28;20058;-64
2021/10/19 10:34:09;;;;;;;21.40;13.50;;;;;;;13.32;55.60;101424.06;5001282;28;20049;-64
2021/10/19 10:36:42;;;;;;;17.30;11.40;;;;;;;13.48;55.11;101435.59;5006306;28;20049;-63
2021/10/19 10:39:08;;;;;;;18.10;12.18;;;;;;;13.47;55.23;101427.78;5004782;28;20034;-64
2021/10/19 10:41:37;;;;;;;20.08;13.20;;;;;;;12.65;57.83;101433.78;5003889;28;20077;-64
2021/10/19 10:44:03;;;;;;;20.23;12.82;;;;;;;13.09;56.45;101439.03;5017657;28;20050;-67
2021/10/19 10:46:29;;;;;;;17.23;11.52;;;;;;;13.31;55.74;101431.06;5002101;28;20026;-64
2021/10/19 10:48:56;;;;;;;15.00;11.25;;;;;;;13.67;54.88;101430.44;4995554;28;20038;-64
2021/10/19 10:51:36;;;;;;;17.95;12.73;;;;;;;13.35;55.89;101439.66;5010650;28;20112;-64
2021/10/19 10:54:02;;;;;;;20.05;13.02;;;;;;;13.65;55.23;101434.03;5014842;28;20394;-67
2021/10/19 10:56:28;;;;;;;15.55;11.32;;;;;;;13.59;55.29;101432.53;4997783;28;20479;-65
2021/10/19 10:58:54;;;;;;;15.43;10.93;;;;;;;13.80;54.29;101422.84;4992865;28;20086;-64
2021/10/19 11:01:22;;;;;;;20.63;12.65;;;;;;;13.77;54.79;101414.28;4994516;28;20078;-65
2021/10/19 11:03:50;;;;;;;23.95;12.68;;;;;;;13.52;55.79;101417.94;4997365;28;20134;-66
2021/10/19 11:06:18;;;;;;;15.93;10.75;;;;;;;13.89;54.90;101398.78;5003363;28;20075;-65
2021/10/19 11:08:55;;;;;;;15.80;11.48;;;;;;;13.66;55.34;101398.97;4990351;28;20112;-64